Time;durP1;ratioP1;P1;durP2;ratioP2;P2;SDS_P1;SDS_P2;PMS_P1;PMS_P2;Temp;Humidity;BMP_temperature;BMP_pressure;BME280_temperature;BME280_humidity;BME280_pressure;Samples;Min_cycle;Max_cycle;Signal;HPM_P1;HPM_P2
2022/06/02 00:01:38;;;;;;;0.20;0.10;;;19.10;99.90;;;;;;26563865;22;20181;-75
2022/06/02 00:12:02;;;;;;;0.20;0.00;;;19.10;99.90;;;;;;26544297;22;20181;-74
2022/06/02 00:22:14;;;;;;;0.20;0.00;;;19.20;99.90;;;;;;26542801;22;20181;-75
2022/06/02 00:32:24;;;;;;;0.20;0.00;;;19.00;99.90;;;;;;26571028;22;20184;-74
2022/06/02 00:42:49;;;;;;;0.20;0.00;;;18.80;99.90;;;;;;26541979;22;20201;-75
2022/06/02 00:53:04;;;;;;;0.20;0.00;;;18.80;99.90;;;;;;26543698;22;20186;-75
2022/06/02 01:03:12;;;;;;;0.20;0.00;;;18.70;99.90;;;;;;26570528;22;20184;-74
2022/06/02 01:13:39;;;;;;;0.20;0.00;;;18.60;99.90;;;;;;26539340;22;20177;-76
2022/06/02 01:24:12;;;;;;;0.20;0.00;;;18.50;99.90;;;;;;26542317;22;20188;-75
2022/06/02 01:34:29;;;;;;;0.20;0.00;;;18.40;99.90;;;;;;26534024;22;20177;-76
2022/06/02 01:44:42;;;;;;;0.20;0.00;;;18.30;99.90;;;;;;26567649;22;20197;-75
2022/06/02 01:54:57;;;;;;;0.20;0.00;;;18.50;99.90;;;;;;26566981;22;20181;-76
2022/06/02 02:05:20;;;;;;;0.20;0.00;;;18.50;99.90;;;;;;26540028;22;20194;-75
2022/06/02 02:15:39;;;;;;;0.20;0.00;;;18.70;99.90;;;;;;26566966;22;20169;-75
2022/06/02 02:25:51;;;;;;;0.20;0.00;;;18.40;99.90;;;;;;26537780;22;20182;-75
2022/06/02 02:36:03;;;;;;;0.20;0.10;;;18.20;99.90;;;;;;26564313;22;20157;-75
2022/06/02 02:46:13;;;;;;;0.20;0.10;;;18.00;99.90;;;;;;26563314;22;20200;-76
2022/06/02 02:56:28;;;;;;;0.20;0.00;;;18.00;99.90;;;;;;26508616;22;20181;-75
2022/06/02 03:06:34;;;;;;;0.20;0.00;;;17.80;99.90;;;;;;26564239;22;20181;-75
2022/06/02 03:16:39;;;;;;;0.20;0.03;;;17.90;99.90;;;;;;26536398;22;20153;-75
2022/06/02 03:26:58;;;;;;;0.20;0.10;;;18.00;99.90;;;;;;26534193;22;20224;-75
2022/06/02 03:37:22;;;;;;;0.20;0.10;;;17.80;99.90;;;;;;26535929;22;20172;-74
2022/06/02 03:47:50;;;;;;;0.20;0.00;;;18.00;99.90;;;;;;26562055;22;20211;-74
2022/06/02 03:58:08;;;;;;;0.20;0.10;;;17.70;99.90;;;;;;26533293;22;20185;-75
2022/06/02 04:08:44;;;;;;;0.20;0.10;;;17.90;99.90;;;;;;26561640;22;20245;-75
2022/06/02 04:29:53;;;;;;;0.20;0.00;;;17.90;99.90;;;;;;26560755;22;20211;-77
2022/06/02 04:40:06;;;;;;;0.20;0.00;;;17.80;99.90;;;;;;26534631;22;20190;-76
2022/06/02 04:50:18;;;;;;;0.20;0.10;;;18.00;99.90;;;;;;26564710;22;20200;-78
2022/06/02 05:00:30;;;;;;;0.20;0.00;;;18.10;99.90;;;;;;26537594;22;20189;-76
2022/06/02 05:10:47;;;;;;;0.20;0.00;;;18.40;99.90;;;;;;26539462;22;20192;-76
2022/06/02 05:21:23;;;;;;;0.20;0.10;;;19.40;99.90;;;;;;26535190;22;20198;-74
2022/06/02 05:31:43;;;;;;;0.20;0.00;;;21.30;99.90;;;;;;26535297;22;20189;-73
2022/06/02 05:42:10;;;;;;;0.20;0.00;;;21.60;99.90;;;;;;26533968;22;20185;-72
2022/06/02 05:52:24;;;;;;;0.20;0.00;;;21.50;99.90;;;;;;26559977;22;20181;-75
2022/06/02 06:03:07;;;;;;;0.20;0.00;;;21.20;99.90;;;;;;26530219;22;20192;-73
2022/06/02 06:13:31;;;;;;;0.20;0.00;;;20.60;99.90;;;;;;26524875;22;20197;-74
2022/06/02 06:23:58;;;;;;;0.20;0.00;;;20.80;99.90;;;;;;26530858;22;20323;-73
2022/06/02 06:34:11;;;;;;;0.20;0.00;;;21.10;99.90;;;;;;26530036;22;20168;-74
2022/06/02 06:44:25;;;;;;;0.20;0.00;;;21.20;99.90;;;;;;26559635;22;20216;-77
2022/06/02 06:54:44;;;;;;;0.20;0.00;;;21.50;99.90;;;;;;26558985;22;20185;-76
2022/06/02 07:05:01;;;;;;;0.20;0.00;;;21.50;99.90;;;;;;26522236;22;20181;-73
2022/06/02 07:15:12;;;;;;;0.20;0.10;;;21.70;99.90;;;;;;26523709;22;20165;-73
2022/06/02 07:25:24;;;;;;;0.20;0.00;;;21.60;99.90;;;;;;26526597;22;20181;-75
2022/06/02 07:35:52;;;;;;;0.20;0.00;;;21.40;99.90;;;;;;26525601;22;20164;-74
2022/06/02 07:46:08;;;;;;;0.20;0.00;;;21.00;99.90;;;;;;26527660;22;20346;-74
2022/06/02 07:56:23;;;;;;;0.20;0.00;;;21.30;99.90;;;;;;26554171;22;20177;-70
2022/06/02 08:06:36;;;;;;;0.20;0.00;;;21.30;99.90;;;;;;26528726;22;20225;-75
2022/06/02 08:16:56;;;;;;;0.20;0.00;;;21.50;99.90;;;;;;26527502;22;20229;-75
2022/06/02 08:27:21;;;;;;;0.20;0.00;;;21.40;99.90;;;;;;26561340;22;20177;-73
2022/06/02 08:37:34;;;;;;;0.20;0.00;;;21.40;99.90;;;;;;26538557;22;20176;-74
2022/06/02 08:48:40;;;;;;;0.20;0.00;;;21.50;99.90;;;;;;26564421;22;20208;-73
2022/06/02 08:59:24;;;;;;;0.20;0.00;;;21.90;99.90;;;;;;26461161;22;20238;-73
2022/06/02 09:09:57;;;;;;;0.20;0.00;;;22.00;99.90;;;;;;26537120;22;20209;-72
2022/06/02 09:20:27;;;;;;;0.20;0.00;;;22.90;99.90;;;;;;26534742;22;20171;-70
2022/06/02 09:30:45;;;;;;;0.20;0.00;;;22.70;99.90;;;;;;26532771;22;20185;-73
2022/06/02 13:45:33;;;;;;;0.20;0.00;;;26.70;99.90;;;;;;26286884;22;20236;-72
2022/06/02 14:06:21;;;;;;;0.20;0.00;;;27.00;99.90;;;;;;26288503;22;20186;-74
2022/06/02 14:16:36;;;;;;;0.20;0.10;;;27.20;99.90;;;;;;26268673;22;20169;-75
2022/06/02 14:27:04;;;;;;;0.20;0.00;;;27.40;99.90;;;;;;26293217;22;20198;-73
2022/06/02 14:37:12;;;;;;;0.20;0.00;;;27.60;99.90;;;;;;26266876;22;20269;-75
2022/06/02 14:47:34;;;;;;;0.20;0.10;;;27.60;99.90;;;;;;26294324;22;20190;-70
2022/06/02 14:58:07;;;;;;;0.20;0.00;;;28.10;99.90;;;;;;26293534;22;20193;-75
2022/06/02 15:08:49;;;;;;;0.20;0.00;;;27.90;99.90;;;;;;26294516;22;20190;-68
2022/06/02 15:19:20;;;;;;;0.20;0.00;;;28.30;99.90;;;;;;26262877;22;20185;-75
2022/06/02 15:30:17;;;;;;;0.20;0.00;;;28.10;99.90;;;;;;26290247;22;20197;-74
2022/06/02 15:41:03;;;;;;;0.20;0.00;;;28.40;99.90;;;;;;26312171;22;20193;-76
2022/06/02 15:51:49;;;;;;;0.20;0.00;;;28.30;99.90;;;;;;26395257;22;20182;-74
2022/06/02 16:02:40;;;;;;;0.20;0.00;;;27.70;99.90;;;;;;26393737;22;20162;-75
2022/06/02 16:13:35;;;;;;;0.20;0.00;;;27.50;99.90;;;;;;26422221;22;20729;-76
2022/06/02 16:24:11;;;;;;;0.20;0.00;;;27.10;99.90;;;;;;26395169;22;20182;-74
2022/06/02 16:34:26;;;;;;;0.20;0.00;;;26.20;99.90;;;;;;26421936;22;20162;-75
2022/06/02 16:45:05;;;;;;;0.20;0.00;;;26.00;99.90;;;;;;26395437;22;20201;-79
2022/06/02 16:55:46;;;;;;;0.20;0.00;;;25.90;99.90;;;;;;26423264;22;20380;-74
2022/06/02 17:06:24;;;;;;;0.20;0.10;;;27.10;99.90;;;;;;26398686;22;20173;-72
2022/06/02 17:16:54;;;;;;;0.20;0.00;;;26.60;99.90;;;;;;26400111;22;20189;-75
2022/06/02 17:27:13;;;;;;;0.20;0.00;;;26.40;99.90;;;;;;26428592;22;20182;-72
2022/06/02 17:37:56;;;;;;;0.20;0.00;;;25.30;99.90;;;;;;26397413;22;20186;-74
2022/06/02 17:48:28;;;;;;;0.20;0.00;;;26.70;99.90;;;;;;26422861;22;20276;-74
2022/06/02 17:59:00;;;;;;;0.20;0.00;;;25.00;99.90;;;;;;26396850;22;20197;-73
2022/06/02 18:09:11;;;;;;;0.20;0.00;;;24.70;99.90;;;;;;26358257;22;20940;-73
2022/06/02 18:19:42;;;;;;;0.20;0.00;;;24.30;99.90;;;;;;26420195;22;20166;-74
2022/06/02 18:30:05;;;;;;;0.20;0.00;;;23.10;99.90;;;;;;26421143;22;20303;-72
2022/06/02 18:40:37;;;;;;;0.20;0.00;;;22.80;99.90;;;;;;26422362;22;20299;-72
2022/06/02 18:51:19;;;;;;;0.20;0.00;;;22.90;99.90;;;;;;26315067;22;20292;-72
2022/06/02 19:01:51;;;;;;;0.20;0.00;;;22.70;99.90;;;;;;26374201;22;20220;-71
2022/06/02 19:22:42;;;;;;;0.20;0.00;;;22.30;99.90;;;;;;26395057;22;20166;-73
2022/06/02 19:33:03;;;;;;;0.20;0.00;;;22.10;99.90;;;;;;26394076;22;20189;-75
2022/06/02 19:43:16;;;;;;;0.20;0.00;;;21.90;99.90;;;;;;26398814;22;20190;-75
2022/06/02 19:53:31;;;;;;;0.20;0.00;;;21.90;99.90;;;;;;26426247;22;20194;-75
2022/06/02 20:03:40;;;;;;;0.20;0.00;;;21.80;99.90;;;;;;26395241;22;20165;-74
2022/06/02 20:13:51;;;;;;;0.20;0.00;;;21.60;99.90;;;;;;26399677;22;20177;-74
2022/06/02 20:24:05;;;;;;;0.20;0.00;;;21.60;99.90;;;;;;26426926;22;20211;-73
2022/06/02 20:34:29;;;;;;;0.20;0.00;;;21.60;99.90;;;;;;26426580;22;20191;-74
2022/06/02 20:44:50;;;;;;;0.20;0.00;;;21.50;99.90;;;;;;26428424;22;20265;-77
2022/06/02 20:55:08;;;;;;;0.20;0.00;;;21.70;99.90;;;;;;26430414;22;20994;-77
2022/06/02 21:06:32;;;;;;;0.20;0.10;;;21.80;99.90;;;;;;26379360;22;20189;-76
2022/06/02 21:17:03;;;;;;;0.20;0.00;;;21.80;99.90;;;;;;26422784;22;20182;-75
2022/06/02 21:27:49;;;;;;;0.20;0.00;;;21.20;99.90;;;;;;26405771;22;21010;-75
2022/06/02 21:48:55;;;;;;;0.20;0.00;;;21.00;99.90;;;;;;26403271;22;20194;-74
2022/06/02 21:59:07;;;;;;;0.20;0.00;;;21.00;99.90;;;;;;26428986;22;20196;-75
2022/06/02 22:09:23;;;;;;;0.20;0.10;;;21.30;99.90;;;;;;26431244;22;20186;-74
2022/06/02 22:19:33;;;;;;;0.20;0.00;;;21.30;99.90;;;;;;26400176;22;20391;-74
2022/06/02 22:29:47;;;;;;;0.20;0.00;;;21.10;99.90;;;;;;26426603;22;20190;-75
2022/06/02 22:40:26;;;;;;;0.20;0.00;;;21.10;99.90;;;;;;26400670;22;20193;-76
2022/06/02 22:50:49;;;;;;;0.20;0.00;;;21.30;99.90;;;;;;26354361;22;20685;-75
2022/06/02 23:01:07;;;;;;;0.20;0.00;;;21.50;99.90;;;;;;26401839;22;20259;-77
2022/06/02 23:12:02;;;;;;;0.20;0.00;;;21.50;99.90;;;;;;26401354;22;20214;-76
2022/06/02 23:22:39;;;;;;;0.20;0.00;;;21.40;99.90;;;;;;26231916;22;20199;-75
2022/06/02 23:33:06;;;;;;;0.20;0.00;;;21.00;99.90;;;;;;26431470;22;20211;-76
2022/06/02 23:54:24;;;;;;;0.20;0.00;;;20.50;99.90;;;;;;26432714;22;20193;-75
